sensor_id;sensor_type;location;lat;lon;timestamp;P1;durP1;ratioP1;P2;durP2;ratioP2
53694;SDS011;39588;51.124;7.190;2023-06-26T00:01:16;3.20;;;2.90;;
53694;SDS011;39588;51.124;7.190;2023-06-26T00:03:45;10.40;;;3.30;;
53694;SDS011;39588;51.124;7.190;2023-06-26T00:06:11;3.93;;;3.00;;
53694;SDS011;39588;51.124;7.190;2023-06-26T00:08:37;2.97;;;2.67;;
53694;SDS011;39588;51.124;7.190;2023-06-26T00:11:02;3.13;;;2.83;;
53694;SDS011;39588;51.124;7.190;2023-06-26T00:13:28;3.33;;;3.03;;
53694;SDS011;39588;51.124;7.190;2023-06-26T00:15:54;6.20;;;2.50;;
53694;SDS011;39588;51.124;7.190;2023-06-26T00:18:20;5.90;;;3.20;;
53694;SDS011;39588;51.124;7.190;2023-06-26T00:20:46;2.67;;;2.40;;
53694;SDS011;39588;51.124;7.190;2023-06-26T00:23:12;2.27;;;2.07;;
53694;SDS011;39588;51.124;7.190;2023-06-26T00:25:41;3.37;;;2.67;;
53694;SDS011;39588;51.124;7.190;2023-06-26T00:28:07;4.97;;;3.53;;
53694;SDS011;39588;51.124;7.190;2023-06-26T00:30:33;2.90;;;2.60;;
53694;SDS011;39588;51.124;7.190;2023-06-26T00:32:59;2.90;;;2.40;;
53694;SDS011;39588;51.124;7.190;2023-06-26T00:35:25;3.80;;;2.93;;
53694;SDS011;39588;51.124;7.190;2023-06-26T00:37:51;3.20;;;2.90;;
53694;SDS011;39588;51.124;7.190;2023-06-26T00:40:17;4.10;;;3.10;;
53694;SDS011;39588;51.124;7.190;2023-06-26T00:42:43;3.40;;;2.60;;
53694;SDS011;39588;51.124;7.190;2023-06-26T00:45:09;6.37;;;3.03;;
53694;SDS011;39588;51.124;7.190;2023-06-26T00:47:35;4.07;;;2.73;;
53694;SDS011;39588;51.124;7.190;2023-06-26T00:50:01;3.27;;;2.87;;
53694;SDS011;39588;51.124;7.190;2023-06-26T00:52:27;3.70;;;3.13;;
53694;SDS011;39588;51.124;7.190;2023-06-26T00:54:53;5.87;;;2.97;;
53694;SDS011;39588;51.124;7.190;2023-06-26T00:57:19;5.70;;;3.10;;
53694;SDS011;39588;51.124;7.190;2023-06-26T00:59:45;2.90;;;2.60;;
53694;SDS011;39588;51.124;7.190;2023-06-26T01:02:11;4.47;;;3.30;;
53694;SDS011;39588;51.124;7.190;2023-06-26T01:04:42;4.10;;;2.90;;
53694;SDS011;39588;51.124;7.190;2023-06-26T01:07:11;4.13;;;3.10;;
53694;SDS011;39588;51.124;7.190;2023-06-26T01:09:39;4.60;;;3.00;;
53694;SDS011;39588;51.124;7.190;2023-06-26T01:12:05;3.47;;;2.60;;
53694;SDS011;39588;51.124;7.190;2023-06-26T01:14:31;3.27;;;2.73;;
53694;SDS011;39588;51.124;7.190;2023-06-26T01:16:57;4.00;;;3.07;;
53694;SDS011;39588;51.124;7.190;2023-06-26T01:19:26;3.10;;;2.80;;
53694;SDS011;39588;51.124;7.190;2023-06-26T01:25:03;4.83;;;3.03;;
53694;SDS011;39588;51.124;7.190;2023-06-26T01:27:38;2.73;;;2.50;;
53694;SDS011;39588;51.124;7.190;2023-06-26T01:30:04;3.03;;;2.73;;
53694;SDS011;39588;51.124;7.190;2023-06-26T01:32:32;11.57;;;3.10;;
53694;SDS011;39588;51.124;7.190;2023-06-26T01:34:59;4.40;;;3.07;;
53694;SDS011;39588;51.124;7.190;2023-06-26T01:37:26;6.17;;;2.90;;
53694;SDS011;39588;51.124;7.190;2023-06-26T01:39:52;3.83;;;3.00;;
53694;SDS011;39588;51.124;7.190;2023-06-26T01:42:18;2.87;;;2.57;;
53694;SDS011;39588;51.124;7.190;2023-06-26T01:44:45;3.53;;;2.60;;
53694;SDS011;39588;51.124;7.190;2023-06-26T01:47:12;4.50;;;2.63;;
53694;SDS011;39588;51.124;7.190;2023-06-26T01:52:35;3.23;;;2.93;;
53694;SDS011;39588;51.124;7.190;2023-06-26T01:57:31;7.40;;;3.17;;
53694;SDS011;39588;51.124;7.190;2023-06-26T01:59:57;3.73;;;2.90;;
53694;SDS011;39588;51.124;7.190;2023-06-26T02:02:24;3.13;;;2.50;;
53694;SDS011;39588;51.124;7.190;2023-06-26T02:04:53;3.20;;;2.70;;
53694;SDS011;39588;51.124;7.190;2023-06-26T02:07:19;3.80;;;3.17;;
53694;SDS011;39588;51.124;7.190;2023-06-26T02:09:44;4.33;;;2.77;;
53694;SDS011;39588;51.124;7.190;2023-06-26T02:12:10;3.47;;;2.73;;
53694;SDS011;39588;51.124;7.190;2023-06-26T02:14:36;3.57;;;3.13;;
53694;SDS011;39588;51.124;7.190;2023-06-26T02:17:02;3.80;;;3.03;;
53694;SDS011;39588;51.124;7.190;2023-06-26T02:19:28;3.50;;;2.40;;
53694;SDS011;39588;51.124;7.190;2023-06-26T02:21:54;6.33;;;3.00;;
53694;SDS011;39588;51.124;7.190;2023-06-26T02:24:20;3.20;;;2.90;;
53694;SDS011;39588;51.124;7.190;2023-06-26T02:26:46;4.47;;;3.07;;
53694;SDS011;39588;51.124;7.190;2023-06-26T02:29:14;3.37;;;2.50;;
53694;SDS011;39588;51.124;7.190;2023-06-26T02:31:39;5.80;;;3.13;;
53694;SDS011;39588;51.124;7.190;2023-06-26T02:34:06;2.93;;;2.57;;
53694;SDS011;39588;51.124;7.190;2023-06-26T02:36:32;3.13;;;2.53;;
53694;SDS011;39588;51.124;7.190;2023-06-26T02:38:57;6.93;;;3.53;;
53694;SDS011;39588;51.124;7.190;2023-06-26T02:41:23;4.03;;;3.00;;
53694;SDS011;39588;51.124;7.190;2023-06-26T02:43:49;4.03;;;2.60;;
53694;SDS011;39588;51.124;7.190;2023-06-26T02:46:15;3.77;;;2.57;;
53694;SDS011;39588;51.124;7.190;2023-06-26T02:48:40;3.63;;;2.87;;
53694;SDS011;39588;51.124;7.190;2023-06-26T02:51:07;4.33;;;3.07;;
53694;SDS011;39588;51.124;7.190;2023-06-26T02:53:33;3.93;;;2.67;;
53694;SDS011;39588;51.124;7.190;2023-06-26T02:56:00;3.50;;;3.10;;
53694;SDS011;39588;51.124;7.190;2023-06-26T02:58:25;3.97;;;3.07;;
53694;SDS011;39588;51.124;7.190;2023-06-26T03:00:51;3.97;;;2.37;;
53694;SDS011;39588;51.124;7.190;2023-06-26T03:03:18;2.57;;;2.30;;
53694;SDS011;39588;51.124;7.190;2023-06-26T03:05:44;3.33;;;2.50;;
53694;SDS011;39588;51.124;7.190;2023-06-26T03:08:09;3.80;;;2.77;;
53694;SDS011;39588;51.124;7.190;2023-06-26T03:10:35;3.90;;;2.77;;
53694;SDS011;39588;51.124;7.190;2023-06-26T03:13:01;6.33;;;2.93;;
53694;SDS011;39588;51.124;7.190;2023-06-26T03:15:27;4.87;;;3.03;;
53694;SDS011;39588;51.124;7.190;2023-06-26T03:17:53;2.60;;;2.40;;
53694;SDS011;39588;51.124;7.190;2023-06-26T03:20:19;2.87;;;2.47;;
53694;SDS011;39588;51.124;7.190;2023-06-26T03:22:44;6.63;;;2.80;;
53694;SDS011;39588;51.124;7.190;2023-06-26T03:25:10;3.40;;;2.40;;
53694;SDS011;39588;51.124;7.190;2023-06-26T03:27:36;4.23;;;2.67;;
53694;SDS011;39588;51.124;7.190;2023-06-26T03:30:02;3.17;;;2.60;;
53694;SDS011;39588;51.124;7.190;2023-06-26T03:32:28;5.77;;;3.47;;
53694;SDS011;39588;51.124;7.190;2023-06-26T03:34:54;3.70;;;2.80;;
53694;SDS011;39588;51.124;7.190;2023-06-26T03:37:20;2.90;;;2.60;;
53694;SDS011;39588;51.124;7.190;2023-06-26T03:39:45;2.40;;;2.20;;
53694;SDS011;39588;51.124;7.190;2023-06-26T03:42:11;10.97;;;3.23;;
53694;SDS011;39588;51.124;7.190;2023-06-26T03:44:36;3.90;;;2.83;;
53694;SDS011;39588;51.124;7.190;2023-06-26T03:47:02;3.50;;;3.07;;
53694;SDS011;39588;51.124;7.190;2023-06-26T03:49:28;4.20;;;2.77;;
53694;SDS011;39588;51.124;7.190;2023-06-26T03:51:54;2.00;;;1.90;;
53694;SDS011;39588;51.124;7.190;2023-06-26T03:54:20;3.57;;;3.17;;
53694;SDS011;39588;51.124;7.190;2023-06-26T03:56:46;5.23;;;3.30;;
53694;SDS011;39588;51.124;7.190;2023-06-26T03:59:12;3.10;;;2.70;;
53694;SDS011;39588;51.124;7.190;2023-06-26T04:01:38;4.20;;;2.97;;
53694;SDS011;39588;51.124;7.190;2023-06-26T04:04:04;2.73;;;2.33;;
53694;SDS011;39588;51.124;7.190;2023-06-26T04:06:30;2.80;;;2.53;;
53694;SDS011;39588;51.124;7.190;2023-06-26T04:08:56;4.57;;;3.20;;
53694;SDS011;39588;51.124;7.190;2023-06-26T04:11:22;5.30;;;3.30;;
53694;SDS011;39588;51.124;7.190;2023-06-26T04:13:49;7.77;;;3.23;;
53694;SDS011;39588;51.124;7.190;2023-06-26T04:16:14;6.13;;;3.40;;
53694;SDS011;39588;51.124;7.190;2023-06-26T04:18:40;3.80;;;2.83;;
53694;SDS011;39588;51.124;7.190;2023-06-26T04:21:07;4.37;;;3.50;;
53694;SDS011;39588;51.124;7.190;2023-06-26T04:23:34;3.20;;;2.90;;
53694;SDS011;39588;51.124;7.190;2023-06-26T04:26:01;3.47;;;3.17;;
53694;SDS011;39588;51.124;7.190;2023-06-26T04:28:27;7.77;;;3.17;;
53694;SDS011;39588;51.124;7.190;2023-06-26T04:30:53;4.67;;;2.67;;
53694;SDS011;39588;51.124;7.190;2023-06-26T04:33:19;3.47;;;2.60;;
53694;SDS011;39588;51.124;7.190;2023-06-26T04:35:45;3.43;;;3.10;;
53694;SDS011;39588;51.124;7.190;2023-06-26T04:38:13;5.33;;;3.03;;
53694;SDS011;39588;51.124;7.190;2023-06-26T04:40:42;5.57;;;3.50;;
53694;SDS011;39588;51.124;7.190;2023-06-26T04:43:07;3.83;;;3.00;;
53694;SDS011;39588;51.124;7.190;2023-06-26T04:45:33;3.13;;;2.77;;
53694;SDS011;39588;51.124;7.190;2023-06-26T04:47:58;7.70;;;2.90;;
53694;SDS011;39588;51.124;7.190;2023-06-26T04:50:25;3.67;;;2.53;;
53694;SDS011;39588;51.124;7.190;2023-06-26T04:52:53;3.43;;;3.03;;
53694;SDS011;39588;51.124;7.190;2023-06-26T04:55:19;4.47;;;3.10;;
53694;SDS011;39588;51.124;7.190;2023-06-26T04:57:46;3.30;;;2.77;;
53694;SDS011;39588;51.124;7.190;2023-06-26T05:00:12;4.27;;;3.00;;
53694;SDS011;39588;51.124;7.190;2023-06-26T05:02:38;8.60;;;3.10;;
53694;SDS011;39588;51.124;7.190;2023-06-26T05:05:04;4.53;;;3.10;;
53694;SDS011;39588;51.124;7.190;2023-06-26T05:07:30;3.00;;;2.47;;
53694;SDS011;39588;51.124;7.190;2023-06-26T05:09:55;4.43;;;2.60;;
53694;SDS011;39588;51.124;7.190;2023-06-26T05:12:21;2.17;;;1.97;;
53694;SDS011;39588;51.124;7.190;2023-06-26T05:14:47;3.53;;;3.17;;
53694;SDS011;39588;51.124;7.190;2023-06-26T05:17:14;3.07;;;2.47;;
53694;SDS011;39588;51.124;7.190;2023-06-26T05:19:40;3.63;;;2.63;;
53694;SDS011;39588;51.124;7.190;2023-06-26T05:22:06;4.07;;;2.93;;
53694;SDS011;39588;51.124;7.190;2023-06-26T05:24:33;3.30;;;2.73;;
53694;SDS011;39588;51.124;7.190;2023-06-26T05:27:03;5.30;;;2.47;;
53694;SDS011;39588;51.124;7.190;2023-06-26T05:29:30;2.87;;;2.50;;
53694;SDS011;39588;51.124;7.190;2023-06-26T05:31:56;3.00;;;2.43;;
53694;SDS011;39588;51.124;7.190;2023-06-26T05:34:23;4.90;;;2.90;;
53694;SDS011;39588;51.124;7.190;2023-06-26T05:36:51;6.03;;;3.20;;
53694;SDS011;39588;51.124;7.190;2023-06-26T05:39:17;2.63;;;2.43;;
53694;SDS011;39588;51.124;7.190;2023-06-26T05:41:46;4.20;;;3.47;;
53694;SDS011;39588;51.124;7.190;2023-06-26T05:44:12;3.93;;;3.00;;
53694;SDS011;39588;51.124;7.190;2023-06-26T05:46:38;3.83;;;2.87;;
53694;SDS011;39588;51.124;7.190;2023-06-26T05:49:04;7.63;;;2.90;;
53694;SDS011;39588;51.124;7.190;2023-06-26T05:51:30;6.83;;;2.93;;
53694;SDS011;39588;51.124;7.190;2023-06-26T05:53:56;8.60;;;2.67;;
53694;SDS011;39588;51.124;7.190;2023-06-26T05:56:22;6.60;;;3.27;;
53694;SDS011;39588;51.124;7.190;2023-06-26T05:58:48;7.13;;;2.63;;
53694;SDS011;39588;51.124;7.190;2023-06-26T06:01:14;12.80;;;2.87;;
53694;SDS011;39588;51.124;7.190;2023-06-26T06:03:40;5.30;;;2.73;;
53694;SDS011;39588;51.124;7.190;2023-06-26T06:06:06;2.50;;;2.30;;
53694;SDS011;39588;51.124;7.190;2023-06-26T06:08:32;3.30;;;2.60;;
53694;SDS011;39588;51.124;7.190;2023-06-26T06:10:59;5.63;;;2.83;;
53694;SDS011;39588;51.124;7.190;2023-06-26T06:13:26;4.23;;;2.97;;
53694;SDS011;39588;51.124;7.190;2023-06-26T06:15:51;5.03;;;2.87;;
53694;SDS011;39588;51.124;7.190;2023-06-26T06:18:17;4.97;;;2.50;;
53694;SDS011;39588;51.124;7.190;2023-06-26T06:20:43;4.70;;;2.43;;
53694;SDS011;39588;51.124;7.190;2023-06-26T06:23:09;4.03;;;2.90;;
53694;SDS011;39588;51.124;7.190;2023-06-26T06:25:34;4.13;;;2.63;;
53694;SDS011;39588;51.124;7.190;2023-06-26T06:28:00;7.67;;;2.73;;
53694;SDS011;39588;51.124;7.190;2023-06-26T06:30:26;3.97;;;2.57;;
53694;SDS011;39588;51.124;7.190;2023-06-26T06:32:53;4.57;;;2.57;;
53694;SDS011;39588;51.124;7.190;2023-06-26T06:35:18;2.77;;;1.83;;
53694;SDS011;39588;51.124;7.190;2023-06-26T06:37:44;2.60;;;2.30;;
53694;SDS011;39588;51.124;7.190;2023-06-26T06:40:10;4.33;;;2.97;;
53694;SDS011;39588;51.124;7.190;2023-06-26T06:42:36;7.77;;;2.20;;
53694;SDS011;39588;51.124;7.190;2023-06-26T06:45:03;3.67;;;2.83;;
53694;SDS011;39588;51.124;7.190;2023-06-26T06:47:29;2.80;;;2.30;;
53694;SDS011;39588;51.124;7.190;2023-06-26T06:49:55;3.93;;;2.63;;
53694;SDS011;39588;51.124;7.190;2023-06-26T06:52:21;3.80;;;2.40;;
53694;SDS011;39588;51.124;7.190;2023-06-26T06:54:53;6.17;;;2.27;;
53694;SDS011;39588;51.124;7.190;2023-06-26T06:57:21;2.10;;;1.90;;
53694;SDS011;39588;51.124;7.190;2023-06-26T06:59:47;5.47;;;2.50;;
53694;SDS011;39588;51.124;7.190;2023-06-26T07:02:14;4.03;;;2.37;;
53694;SDS011;39588;51.124;7.190;2023-06-26T07:04:41;3.63;;;2.20;;
53694;SDS011;39588;51.124;7.190;2023-06-26T07:07:06;4.30;;;2.00;;
53694;SDS011;39588;51.124;7.190;2023-06-26T07:09:32;2.30;;;2.10;;
53694;SDS011;39588;51.124;7.190;2023-06-26T07:11:58;4.00;;;2.13;;
53694;SDS011;39588;51.124;7.190;2023-06-26T07:14:23;1.97;;;1.80;;
53694;SDS011;39588;51.124;7.190;2023-06-26T07:16:49;5.10;;;2.17;;
53694;SDS011;39588;51.124;7.190;2023-06-26T07:19:15;3.33;;;2.37;;
53694;SDS011;39588;51.124;7.190;2023-06-26T07:21:41;7.20;;;2.50;;
53694;SDS011;39588;51.124;7.190;2023-06-26T07:24:08;2.50;;;2.30;;
53694;SDS011;39588;51.124;7.190;2023-06-26T07:26:34;3.20;;;2.50;;
53694;SDS011;39588;51.124;7.190;2023-06-26T07:28:59;8.90;;;2.70;;
53694;SDS011;39588;51.124;7.190;2023-06-26T07:31:25;5.37;;;2.57;;
53694;SDS011;39588;51.124;7.190;2023-06-26T07:33:50;2.93;;;2.43;;
53694;SDS011;39588;51.124;7.190;2023-06-26T07:36:16;12.63;;;3.03;;
53694;SDS011;39588;51.124;7.190;2023-06-26T07:38:42;6.17;;;2.60;;
53694;SDS011;39588;51.124;7.190;2023-06-26T07:41:08;10.60;;;2.60;;
53694;SDS011;39588;51.124;7.190;2023-06-26T07:43:34;5.83;;;3.20;;
53694;SDS011;39588;51.124;7.190;2023-06-26T07:46:00;8.07;;;3.37;;
53694;SDS011;39588;51.124;7.190;2023-06-26T07:48:25;4.63;;;2.80;;
53694;SDS011;39588;51.124;7.190;2023-06-26T07:50:51;17.60;;;3.07;;
53694;SDS011;39588;51.124;7.190;2023-06-26T07:53:18;3.87;;;2.67;;
53694;SDS011;39588;51.124;7.190;2023-06-26T07:55:44;2.70;;;2.43;;
53694;SDS011;39588;51.124;7.190;2023-06-26T07:58:09;2.63;;;2.40;;
53694;SDS011;39588;51.124;7.190;2023-06-26T08:00:36;4.47;;;3.07;;
53694;SDS011;39588;51.124;7.190;2023-06-26T08:03:01;4.63;;;3.13;;
53694;SDS011;39588;51.124;7.190;2023-06-26T08:05:27;4.63;;;2.70;;
53694;SDS011;39588;51.124;7.190;2023-06-26T08:10:23;4.30;;;2.77;;
53694;SDS011;39588;51.124;7.190;2023-06-26T08:12:48;9.53;;;3.10;;
53694;SDS011;39588;51.124;7.190;2023-06-26T08:15:15;10.87;;;4.60;;
53694;SDS011;39588;51.124;7.190;2023-06-26T08:17:41;4.23;;;2.77;;
53694;SDS011;39588;51.124;7.190;2023-06-26T08:20:07;11.03;;;3.57;;
53694;SDS011;39588;51.124;7.190;2023-06-26T08:22:33;6.67;;;2.70;;
53694;SDS011;39588;51.124;7.190;2023-06-26T08:24:59;6.03;;;3.10;;
53694;SDS011;39588;51.124;7.190;2023-06-26T08:27:24;5.33;;;2.87;;
53694;SDS011;39588;51.124;7.190;2023-06-26T08:29:50;6.90;;;2.80;;
53694;SDS011;39588;51.124;7.190;2023-06-26T08:32:16;4.33;;;2.60;;
53694;SDS011;39588;51.124;7.190;2023-06-26T08:34:42;4.43;;;2.23;;
53694;SDS011;39588;51.124;7.190;2023-06-26T08:37:08;5.27;;;2.57;;
53694;SDS011;39588;51.124;7.190;2023-06-26T08:39:34;4.20;;;2.40;;
53694;SDS011;39588;51.124;7.190;2023-06-26T08:42:00;8.70;;;3.47;;
53694;SDS011;39588;51.124;7.190;2023-06-26T08:44:26;4.90;;;2.30;;
53694;SDS011;39588;51.124;7.190;2023-06-26T08:46:52;5.80;;;2.90;;
53694;SDS011;39588;51.124;7.190;2023-06-26T08:49:20;4.10;;;2.80;;
53694;SDS011;39588;51.124;7.190;2023-06-26T08:52:02;3.67;;;2.33;;
53694;SDS011;39588;51.124;7.190;2023-06-26T08:54:34;7.10;;;3.47;;
53694;SDS011;39588;51.124;7.190;2023-06-26T08:57:07;8.23;;;2.57;;
53694;SDS011;39588;51.124;7.190;2023-06-26T08:59:33;3.77;;;2.70;;
53694;SDS011;39588;51.124;7.190;2023-06-26T09:01:59;5.77;;;3.03;;
53694;SDS011;39588;51.124;7.190;2023-06-26T09:04:25;5.33;;;2.77;;
53694;SDS011;39588;51.124;7.190;2023-06-26T09:06:51;7.90;;;2.70;;
53694;SDS011;39588;51.124;7.190;2023-06-26T09:09:17;4.73;;;2.27;;
53694;SDS011;39588;51.124;7.190;2023-06-26T09:11:43;4.27;;;2.60;;
53694;SDS011;39588;51.124;7.190;2023-06-26T09:14:09;3.27;;;2.30;;
53694;SDS011;39588;51.124;7.190;2023-06-26T09:16:41;2.90;;;2.67;;
53694;SDS011;39588;51.124;7.190;2023-06-26T09:19:13;8.00;;;2.67;;
53694;SDS011;39588;51.124;7.190;2023-06-26T09:21:39;6.40;;;3.53;;
53694;SDS011;39588;51.124;7.190;2023-06-26T09:24:06;26.10;;;2.63;;
53694;SDS011;39588;51.124;7.190;2023-06-26T09:26:33;4.47;;;2.73;;
53694;SDS011;39588;51.124;7.190;2023-06-26T09:29:00;4.90;;;2.60;;
53694;SDS011;39588;51.124;7.190;2023-06-26T09:31:26;14.90;;;2.73;;
53694;SDS011;39588;51.124;7.190;2023-06-26T09:33:55;9.20;;;2.93;;
53694;SDS011;39588;51.124;7.190;2023-06-26T09:36:28;6.47;;;3.27;;
53694;SDS011;39588;51.124;7.190;2023-06-26T09:38:58;2.93;;;2.63;;
53694;SDS011;39588;51.124;7.190;2023-06-26T09:41:24;10.77;;;3.17;;
53694;SDS011;39588;51.124;7.190;2023-06-26T09:43:50;5.53;;;3.60;;
53694;SDS011;39588;51.124;7.190;2023-06-26T09:46:16;13.80;;;3.70;;
53694;SDS011;39588;51.124;7.190;2023-06-26T09:48:48;8.03;;;3.17;;
53694;SDS011;39588;51.124;7.190;2023-06-26T09:51:16;4.13;;;2.33;;
53694;SDS011;39588;51.124;7.190;2023-06-26T09:53:42;3.30;;;2.73;;
53694;SDS011;39588;51.124;7.190;2023-06-26T09:56:14;12.80;;;2.70;;
53694;SDS011;39588;51.124;7.190;2023-06-26T09:58:44;3.33;;;2.70;;
53694;SDS011;39588;51.124;7.190;2023-06-26T10:01:09;9.60;;;2.40;;
53694;SDS011;39588;51.124;7.190;2023-06-26T10:03:35;6.40;;;2.67;;
53694;SDS011;39588;51.124;7.190;2023-06-26T10:06:02;4.63;;;3.67;;
53694;SDS011;39588;51.124;7.190;2023-06-26T10:08:28;12.73;;;3.47;;
53694;SDS011;39588;51.124;7.190;2023-06-26T10:10:55;7.97;;;3.53;;
53694;SDS011;39588;51.124;7.190;2023-06-26T10:13:24;3.03;;;2.30;;
53694;SDS011;39588;51.124;7.190;2023-06-26T10:15:54;6.07;;;2.80;;
53694;SDS011;39588;51.124;7.190;2023-06-26T10:18:21;2.70;;;2.50;;
53694;SDS011;39588;51.124;7.190;2023-06-26T10:20:49;6.10;;;2.53;;
53694;SDS011;39588;51.124;7.190;2023-06-26T10:23:18;6.60;;;2.50;;
53694;SDS011;39588;51.124;7.190;2023-06-26T10:25:45;4.30;;;2.90;;
53694;SDS011;39588;51.124;7.190;2023-06-26T10:28:13;8.63;;;2.50;;
53694;SDS011;39588;51.124;7.190;2023-06-26T10:30:41;5.17;;;3.13;;
53694;SDS011;39588;51.124;7.190;2023-06-26T10:33:09;2.97;;;2.57;;
53694;SDS011;39588;51.124;7.190;2023-06-26T10:35:43;5.20;;;2.87;;
53694;SDS011;39588;51.124;7.190;2023-06-26T10:38:09;4.67;;;2.73;;
53694;SDS011;39588;51.124;7.190;2023-06-26T10:40:42;8.80;;;2.33;;
53694;SDS011;39588;51.124;7.190;2023-06-26T10:43:14;4.17;;;2.50;;
53694;SDS011;39588;51.124;7.190;2023-06-26T10:45:49;6.70;;;2.43;;
53694;SDS011;39588;51.124;7.190;2023-06-26T10:48:19;2.57;;;2.20;;
53694;SDS011;39588;51.124;7.190;2023-06-26T10:50:49;3.17;;;2.47;;
53694;SDS011;39588;51.124;7.190;2023-06-26T10:56:04;5.73;;;2.70;;
53694;SDS011;39588;51.124;7.190;2023-06-26T11:03:43;3.73;;;2.63;;
53694;SDS011;39588;51.124;7.190;2023-06-26T11:06:10;8.07;;;2.20;;
53694;SDS011;39588;51.124;7.190;2023-06-26T11:14:34;6.80;;;1.70;;
53694;SDS011;39588;51.124;7.190;2023-06-26T11:17:01;2.57;;;1.63;;
53694;SDS011;39588;51.124;7.190;2023-06-26T11:19:28;1.30;;;1.30;;
53694;SDS011;39588;51.124;7.190;2023-06-26T11:21:57;6.00;;;1.63;;
53694;SDS011;39588;51.124;7.190;2023-06-26T11:24:26;4.50;;;2.13;;
53694;SDS011;39588;51.124;7.190;2023-06-26T11:26:53;2.83;;;2.30;;
53694;SDS011;39588;51.124;7.190;2023-06-26T11:29:24;5.77;;;2.47;;
53694;SDS011;39588;51.124;7.190;2023-06-26T11:31:55;4.63;;;2.13;;
53694;SDS011;39588;51.124;7.190;2023-06-26T11:34:25;6.07;;;2.20;;
53694;SDS011;39588;51.124;7.190;2023-06-26T11:36:56;8.37;;;2.17;;
53694;SDS011;39588;51.124;7.190;2023-06-26T11:39:22;4.10;;;1.97;;
53694;SDS011;39588;51.124;7.190;2023-06-26T11:41:48;3.47;;;1.97;;
53694;SDS011;39588;51.124;7.190;2023-06-26T11:44:14;7.30;;;1.87;;
53694;SDS011;39588;51.124;7.190;2023-06-26T11:46:45;6.40;;;1.80;;
53694;SDS011;39588;51.124;7.190;2023-06-26T11:49:10;3.10;;;1.57;;
53694;SDS011;39588;51.124;7.190;2023-06-26T11:51:36;2.47;;;1.97;;
53694;SDS011;39588;51.124;7.190;2023-06-26T11:54:02;2.60;;;1.80;;
53694;SDS011;39588;51.124;7.190;2023-06-26T11:56:29;2.67;;;1.40;;
53694;SDS011;39588;51.124;7.190;2023-06-26T11:59:11;2.70;;;1.37;;
53694;SDS011;39588;51.124;7.190;2023-06-26T12:01:41;4.07;;;1.30;;
53694;SDS011;39588;51.124;7.190;2023-06-26T12:04:11;1.10;;;1.10;;
53694;SDS011;39588;51.124;7.190;2023-06-26T12:06:38;1.60;;;1.27;;
53694;SDS011;39588;51.124;7.190;2023-06-26T12:09:07;1.10;;;1.10;;
53694;SDS011;39588;51.124;7.190;2023-06-26T12:11:38;5.40;;;1.27;;
53694;SDS011;39588;51.124;7.190;2023-06-26T12:14:06;1.17;;;1.17;;
53694;SDS011;39588;51.124;7.190;2023-06-26T12:16:33;1.10;;;1.10;;
53694;SDS011;39588;51.124;7.190;2023-06-26T12:18:59;2.90;;;1.00;;
53694;SDS011;39588;51.124;7.190;2023-06-26T12:23:58;1.10;;;0.90;;
53694;SDS011;39588;51.124;7.190;2023-06-26T12:26:25;4.43;;;1.30;;
53694;SDS011;39588;51.124;7.190;2023-06-26T12:28:51;4.63;;;1.10;;
53694;SDS011;39588;51.124;7.190;2023-06-26T12:31:19;1.70;;;1.27;;
53694;SDS011;39588;51.124;7.190;2023-06-26T12:33:46;2.70;;;1.07;;
53694;SDS011;39588;51.124;7.190;2023-06-26T12:36:12;1.10;;;1.03;;
53694;SDS011;39588;51.124;7.190;2023-06-26T12:38:38;0.90;;;0.90;;
53694;SDS011;39588;51.124;7.190;2023-06-26T12:41:05;3.83;;;1.20;;
53694;SDS011;39588;51.124;7.190;2023-06-26T12:43:37;1.07;;;0.90;;
53694;SDS011;39588;51.124;7.190;2023-06-26T12:46:03;0.60;;;0.60;;
53694;SDS011;39588;51.124;7.190;2023-06-26T12:48:36;1.43;;;1.33;;
53694;SDS011;39588;51.124;7.190;2023-06-26T12:51:09;3.13;;;0.80;;
53694;SDS011;39588;51.124;7.190;2023-06-26T12:53:35;1.13;;;1.10;;
53694;SDS011;39588;51.124;7.190;2023-06-26T12:56:01;0.90;;;0.90;;
53694;SDS011;39588;51.124;7.190;2023-06-26T12:58:27;3.83;;;0.97;;
53694;SDS011;39588;51.124;7.190;2023-06-26T13:00:53;1.10;;;1.10;;
53694;SDS011;39588;51.124;7.190;2023-06-26T13:03:19;0.80;;;0.80;;
53694;SDS011;39588;51.124;7.190;2023-06-26T13:05:45;2.23;;;0.97;;
53694;SDS011;39588;51.124;7.190;2023-06-26T13:08:12;2.03;;;1.13;;
53694;SDS011;39588;51.124;7.190;2023-06-26T13:10:37;0.80;;;0.80;;
53694;SDS011;39588;51.124;7.190;2023-06-26T13:13:05;4.23;;;0.97;;
53694;SDS011;39588;51.124;7.190;2023-06-26T13:15:31;1.10;;;1.00;;
53694;SDS011;39588;51.124;7.190;2023-06-26T13:17:57;2.30;;;0.80;;
53694;SDS011;39588;51.124;7.190;2023-06-26T13:20:23;3.03;;;0.93;;
53694;SDS011;39588;51.124;7.190;2023-06-26T13:22:49;1.27;;;1.13;;
53694;SDS011;39588;51.124;7.190;2023-06-26T13:25:15;5.43;;;0.97;;
53694;SDS011;39588;51.124;7.190;2023-06-26T13:27:40;0.70;;;0.70;;
53694;SDS011;39588;51.124;7.190;2023-06-26T13:30:06;1.27;;;0.97;;
53694;SDS011;39588;51.124;7.190;2023-06-26T13:32:32;7.73;;;1.00;;
53694;SDS011;39588;51.124;7.190;2023-06-26T13:34:58;1.33;;;0.90;;
53694;SDS011;39588;51.124;7.190;2023-06-26T13:37:24;0.80;;;0.80;;
53694;SDS011;39588;51.124;7.190;2023-06-26T13:39:50;8.80;;;1.10;;
53694;SDS011;39588;51.124;7.190;2023-06-26T13:42:19;0.87;;;0.87;;
53694;SDS011;39588;51.124;7.190;2023-06-26T13:44:45;1.33;;;0.73;;
53694;SDS011;39588;51.124;7.190;2023-06-26T13:47:12;2.97;;;0.73;;
53694;SDS011;39588;51.124;7.190;2023-06-26T13:49:39;0.73;;;0.73;;
53694;SDS011;39588;51.124;7.190;2023-06-26T13:52:05;0.60;;;0.60;;
53694;SDS011;39588;51.124;7.190;2023-06-26T13:54:34;0.97;;;0.57;;
53694;SDS011;39588;51.124;7.190;2023-06-26T13:57:01;1.10;;;1.00;;
53694;SDS011;39588;51.124;7.190;2023-06-26T13:59:28;0.60;;;0.60;;
53694;SDS011;39588;51.124;7.190;2023-06-26T14:01:53;1.20;;;0.77;;
53694;SDS011;39588;51.124;7.190;2023-06-26T14:04:19;2.07;;;1.03;;
53694;SDS011;39588;51.124;7.190;2023-06-26T14:06:46;2.40;;;1.17;;
53694;SDS011;39588;51.124;7.190;2023-06-26T14:09:14;1.43;;;0.90;;
53694;SDS011;39588;51.124;7.190;2023-06-26T14:11:40;0.90;;;0.90;;
53694;SDS011;39588;51.124;7.190;2023-06-26T14:14:06;0.60;;;0.60;;
53694;SDS011;39588;51.124;7.190;2023-06-26T14:16:32;0.60;;;0.60;;
53694;SDS011;39588;51.124;7.190;2023-06-26T14:18:57;1.67;;;0.70;;
53694;SDS011;39588;51.124;7.190;2023-06-26T14:21:23;1.73;;;0.77;;
53694;SDS011;39588;51.124;7.190;2023-06-26T14:23:49;1.77;;;0.83;;
53694;SDS011;39588;51.124;7.190;2023-06-26T14:26:15;4.03;;;0.70;;
53694;SDS011;39588;51.124;7.190;2023-06-26T14:28:41;0.57;;;0.57;;
53694;SDS011;39588;51.124;7.190;2023-06-26T14:31:07;11.83;;;1.37;;
53694;SDS011;39588;51.124;7.190;2023-06-26T14:33:32;0.80;;;0.70;;
53694;SDS011;39588;51.124;7.190;2023-06-26T14:35:58;0.93;;;0.63;;
53694;SDS011;39588;51.124;7.190;2023-06-26T14:38:24;2.97;;;0.90;;
53694;SDS011;39588;51.124;7.190;2023-06-26T14:40:49;2.77;;;0.80;;
53694;SDS011;39588;51.124;7.190;2023-06-26T14:43:15;1.00;;;0.60;;
53694;SDS011;39588;51.124;7.190;2023-06-26T14:45:41;8.03;;;1.20;;
53694;SDS011;39588;51.124;7.190;2023-06-26T14:48:07;0.70;;;0.70;;
53694;SDS011;39588;51.124;7.190;2023-06-26T14:50:33;0.50;;;0.50;;
53694;SDS011;39588;51.124;7.190;2023-06-26T14:52:58;1.00;;;0.80;;
53694;SDS011;39588;51.124;7.190;2023-06-26T14:55:24;1.50;;;0.67;;
53694;SDS011;39588;51.124;7.190;2023-06-26T14:57:50;0.70;;;0.70;;
53694;SDS011;39588;51.124;7.190;2023-06-26T15:00:17;1.90;;;0.70;;
53694;SDS011;39588;51.124;7.190;2023-06-26T15:02:42;1.90;;;0.77;;
53694;SDS011;39588;51.124;7.190;2023-06-26T15:05:08;2.53;;;1.00;;
53694;SDS011;39588;51.124;7.190;2023-06-26T15:07:34;0.73;;;0.73;;
53694;SDS011;39588;51.124;7.190;2023-06-26T15:10:00;1.23;;;0.70;;
53694;SDS011;39588;51.124;7.190;2023-06-26T15:12:26;1.47;;;0.67;;